createdAt,value
2023-05-06T00:00:49.898Z,95241.94
2023-05-06T00:03:18.773Z,95238.25
2023-05-06T00:05:47.564Z,95201.84
2023-05-06T00:08:15.894Z,95242.13
2023-05-06T00:10:44.227Z,95242.56
2023-05-06T00:13:13.503Z,95198.78
2023-05-06T00:15:43.062Z,95244.34
2023-05-06T00:18:11.175Z,95237.44
2023-05-06T00:20:39.348Z,95236.78
2023-05-06T00:23:07.475Z,95191.06
2023-05-06T00:25:35.727Z,95238.22
2023-05-06T00:28:03.754Z,95233.47
2023-05-06T00:30:32.196Z,95242.34
2023-05-06T00:33:03.274Z,95232.22
2023-05-06T00:35:32.188Z,95239.00
2023-05-06T00:38:09.732Z,95236.63
2023-05-06T00:40:38.289Z,95256.31
2023-05-06T00:43:06.898Z,95252.41
2023-05-06T00:45:35.412Z,95247.00
2023-05-06T00:48:06.496Z,95236.44
2023-05-06T00:50:36.075Z,95240.34
2023-05-06T00:53:07.405Z,95242.72
2023-05-06T00:55:35.757Z,95237.31
2023-05-06T00:58:04.756Z,95235.81
2023-05-06T01:00:33.308Z,95226.97
2023-05-06T01:03:01.893Z,95230.97
2023-05-06T01:05:37.095Z,95234.63
2023-05-06T01:08:13.628Z,95225.81
2023-05-06T01:10:49.230Z,95236.38
2023-05-06T01:13:26.112Z,95180.81
2023-05-06T01:15:56.663Z,95124.41
2023-05-06T01:18:27.864Z,95232.50
2023-05-06T01:20:59.365Z,95223.63
2023-05-06T01:23:30.248Z,95230.66
2023-05-06T01:25:58.420Z,95235.72
2023-05-06T01:28:26.743Z,95233.25
2023-05-06T01:31:00.935Z,95228.72
2023-05-06T01:33:38.785Z,95217.72
2023-05-06T01:36:16.381Z,95230.66
2023-05-06T01:38:54.232Z,95224.19
2023-05-06T01:41:24.428Z,95223.75
2023-05-06T01:43:56.476Z,95228.47
2023-05-06T01:46:26.813Z,95225.69
2023-05-06T01:48:56.521Z,95211.00
2023-05-06T01:51:25.081Z,95235.06
2023-05-06T01:53:54.920Z,95230.22
2023-05-06T01:56:23.607Z,95228.25
2023-05-06T01:58:51.864Z,95238.63
2023-05-06T02:01:20.386Z,95247.06
2023-05-06T02:03:48.712Z,95230.09
2023-05-06T02:06:17.263Z,95216.41
2023-05-06T02:08:45.897Z,95227.75
2023-05-06T02:11:15.343Z,95220.50
2023-05-06T02:13:43.478Z,95234.97
2023-05-06T02:16:11.728Z,95197.19
2023-05-06T02:18:39.870Z,95087.84
2023-05-06T02:21:08.366Z,95234.31
2023-05-06T02:23:36.704Z,95221.56
2023-05-06T02:26:06.306Z,95225.56
2023-05-06T02:28:35.903Z,95232.50
2023-05-06T02:31:04.084Z,95226.13
2023-05-06T02:33:33.483Z,95230.75
2023-05-06T02:36:01.665Z,95224.72
2023-05-06T02:38:29.714Z,95237.25
2023-05-06T02:40:59.656Z,95222.13
2023-05-06T02:43:28.013Z,95230.22
2023-05-06T02:45:57.592Z,95227.63
2023-05-06T02:48:25.929Z,95189.56
2023-05-06T02:50:54.020Z,95220.09
2023-05-06T02:53:22.371Z,95225.06
2023-05-06T02:55:50.751Z,95233.66
2023-05-06T02:58:18.927Z,95234.56
2023-05-06T03:00:46.970Z,95216.41
2023-05-06T03:03:17.257Z,95223.75
2023-05-06T03:05:47.306Z,95242.97
2023-05-06T03:08:16.052Z,95235.50
2023-05-06T03:10:44.233Z,95238.84
2023-05-06T03:13:12.270Z,95235.81
2023-05-06T03:15:41.694Z,95242.06
2023-05-06T03:18:09.859Z,95195.13
2023-05-06T03:20:41.098Z,95245.13
2023-05-06T03:23:09.091Z,95247.47
2023-05-06T03:25:37.115Z,95251.25
2023-05-06T03:28:05.823Z,95251.38
2023-05-06T03:30:34.774Z,95252.88
2023-05-06T03:33:03.775Z,95250.78
2023-05-06T03:35:32.097Z,95264.50
2023-05-06T03:38:02.153Z,95261.69
2023-05-06T03:40:30.754Z,95258.41
2023-05-06T03:42:58.814Z,95258.81
2023-05-06T03:45:27.007Z,95261.19
2023-05-06T03:47:58.434Z,95257.41
2023-05-06T03:50:27.462Z,95260.75
2023-05-06T03:52:55.763Z,95260.97
2023-05-06T03:55:25.413Z,95263.00
2023-05-06T03:57:53.366Z,95261.38
2023-05-06T04:00:22.099Z,95253.84
2023-05-06T04:02:51.555Z,95272.53
2023-05-06T04:05:19.857Z,95234.84
2023-05-06T04:07:48.000Z,95267.16
2023-05-06T04:10:16.231Z,95277.63
2023-05-06T04:12:46.191Z,95277.41
2023-05-06T04:15:14.511Z,95245.78
2023-05-06T04:17:42.968Z,95274.47
2023-05-06T04:20:12.633Z,95270.38
2023-05-06T04:22:41.530Z,95277.53
2023-05-06T04:25:11.430Z,95264.31
2023-05-06T04:27:39.855Z,95276.41
2023-05-06T04:30:12.029Z,95276.53
2023-05-06T04:32:41.260Z,95282.78
2023-05-06T04:35:10.883Z,95287.22
2023-05-06T04:37:39.910Z,95284.72
2023-05-06T04:40:09.466Z,95286.47
2023-05-06T04:42:39.707Z,95288.19
2023-05-06T04:45:11.778Z,95294.13
2023-05-06T04:47:40.167Z,95293.28
2023-05-06T04:50:09.067Z,95286.69
2023-05-06T04:52:38.706Z,95299.75
2023-05-06T04:55:09.537Z,95284.28
2023-05-06T04:57:37.753Z,95299.09
2023-05-06T05:00:07.319Z,95266.75
2023-05-06T05:02:39.643Z,95295.94
2023-05-06T05:05:08.719Z,95295.16
2023-05-06T05:07:37.057Z,95279.25
2023-05-06T05:10:05.857Z,95299.03
2023-05-06T05:12:33.917Z,95285.69
2023-05-06T05:15:01.982Z,95296.53
2023-05-06T05:17:30.583Z,95295.97
2023-05-06T05:20:01.407Z,95295.38
2023-05-06T05:22:29.737Z,95305.91
2023-05-06T05:24:58.400Z,95301.66
2023-05-06T05:27:26.768Z,95301.09
2023-05-06T05:29:54.738Z,95304.50
2023-05-06T05:32:22.699Z,95301.44
2023-05-06T05:34:51.350Z,95304.72
2023-05-06T05:37:21.030Z,95299.19
2023-05-06T05:39:49.535Z,95292.47
2023-05-06T05:42:18.293Z,95294.31
2023-05-06T05:44:46.616Z,95298.94
2023-05-06T05:47:17.059Z,95282.72
2023-05-06T05:49:45.056Z,95298.25
2023-05-06T05:52:13.336Z,95303.84
2023-05-06T05:54:43.260Z,95264.63
2023-05-06T05:57:11.510Z,95307.16
2023-05-06T05:59:39.548Z,95310.47
2023-05-06T06:02:08.089Z,95307.72
2023-05-06T06:04:39.596Z,95311.94
2023-05-06T06:07:08.223Z,95308.69
2023-05-06T06:09:36.509Z,95306.56
2023-05-06T06:12:06.495Z,95302.03
2023-05-06T06:14:37.734Z,95318.25
2023-05-06T06:17:07.304Z,95313.28
2023-05-06T06:19:36.036Z,95319.13
2023-05-06T06:22:09.899Z,95318.25
2023-05-06T06:24:38.053Z,95321.28
2023-05-06T06:27:10.448Z,95318.13
2023-05-06T06:29:39.528Z,95313.28
2023-05-06T06:32:09.577Z,95316.75
2023-05-06T06:34:38.123Z,95278.44
2023-05-06T06:37:08.014Z,95305.91
2023-05-06T06:39:36.303Z,95314.97
2023-05-06T06:42:07.183Z,95307.88
2023-05-06T06:44:38.223Z,95310.75
2023-05-06T06:47:06.302Z,95330.38
2023-05-06T06:49:35.918Z,95332.47
2023-05-06T06:52:03.934Z,95317.84
2023-05-06T06:54:33.383Z,95322.50
2023-05-06T06:57:01.755Z,95326.28
2023-05-06T06:59:30.092Z,95316.81
2023-05-06T07:01:59.779Z,95318.34
2023-05-06T07:04:28.305Z,95322.38
2023-05-06T07:06:56.872Z,95313.47
2023-05-06T07:09:25.036Z,95323.97
2023-05-06T07:11:53.396Z,95322.44
2023-05-06T07:14:22.178Z,95324.06
2023-05-06T07:16:51.576Z,95323.81
2023-05-06T07:19:21.503Z,95318.97
2023-05-06T07:21:51.346Z,95331.16
2023-05-06T07:24:19.701Z,95317.03
2023-05-06T07:26:49.072Z,95323.38
2023-05-06T07:29:17.313Z,95325.72
2023-05-06T07:31:45.588Z,95332.03
2023-05-06T07:34:16.134Z,95268.00
2023-05-06T07:36:45.896Z,95326.41
2023-05-06T07:39:16.266Z,95320.72
2023-05-06T07:41:45.824Z,95295.97
2023-05-06T07:44:13.943Z,95309.28
2023-05-06T07:46:42.521Z,95324.09
2023-05-06T07:49:11.020Z,95324.56
2023-05-06T07:51:39.012Z,95333.41
2023-05-06T07:54:08.845Z,95332.34
2023-05-06T07:56:37.391Z,95318.88
2023-05-06T07:59:06.195Z,95310.53
2023-05-06T08:01:36.292Z,95332.06
2023-05-06T08:04:04.937Z,95328.59
2023-05-06T08:06:33.349Z,95319.47
2023-05-06T08:09:04.087Z,95315.72
2023-05-06T08:11:35.224Z,95311.38
2023-05-06T08:14:03.697Z,95301.97
2023-05-06T08:16:31.993Z,95312.34
2023-05-06T08:18:59.967Z,95324.69
2023-05-06T08:21:28.960Z,95324.41
2023-05-06T08:23:57.040Z,95325.25
2023-05-06T08:26:26.426Z,95275.78
2023-05-06T08:28:56.360Z,95325.53
2023-05-06T08:31:24.598Z,95313.47
2023-05-06T08:33:54.661Z,95325.81
2023-05-06T08:36:23.572Z,95311.94
2023-05-06T08:38:51.939Z,95322.03
2023-05-06T08:41:21.892Z,95317.28
2023-05-06T08:43:52.395Z,95301.53
2023-05-06T08:46:21.984Z,95320.88
2023-05-06T08:48:50.134Z,95321.13
2023-05-06T08:51:19.979Z,95323.22
2023-05-06T08:53:50.669Z,95315.19
2023-05-06T08:56:20.319Z,95322.97
2023-05-06T08:58:53.840Z,95314.75
2023-05-06T09:01:24.209Z,95305.53
2023-05-06T09:03:53.389Z,95304.69
2023-05-06T09:06:21.869Z,95268.66
2023-05-06T09:08:50.054Z,95303.94
2023-05-06T09:11:23.307Z,95297.97
2023-05-06T09:13:52.729Z,95293.63
2023-05-06T09:16:32.237Z,95294.94
2023-05-06T09:19:00.770Z,95292.75
2023-05-06T09:21:35.428Z,95292.72
2023-05-06T09:24:04.680Z,95291.56
2023-05-06T09:26:33.485Z,95288.47
2023-05-06T09:29:02.790Z,95294.34
2023-05-06T09:31:33.162Z,95282.53
2023-05-06T09:34:02.877Z,95285.78
2023-05-06T09:36:31.575Z,95282.59
2023-05-06T09:39:00.040Z,95280.94
2023-05-06T09:41:28.523Z,95283.38
2023-05-06T09:43:59.303Z,95276.72
2023-05-06T09:46:28.521Z,95281.50
2023-05-06T09:48:58.963Z,95266.09
2023-05-06T09:51:28.804Z,95267.38
2023-05-06T09:54:01.197Z,95268.53
2023-05-06T09:56:31.970Z,95265.56
2023-05-06T09:59:05.462Z,95276.34
2023-05-06T10:01:37.749Z,95262.75
2023-05-06T10:04:11.114Z,95262.91
2023-05-06T10:06:41.559Z,95273.00
2023-05-06T10:09:11.039Z,95264.56
2023-05-06T10:11:40.805Z,95234.59
2023-05-06T10:14:09.872Z,95236.38
2023-05-06T10:16:40.653Z,95270.06
2023-05-06T10:19:10.947Z,95265.16
2023-05-06T10:21:44.899Z,95259.22
2023-05-06T10:24:19.433Z,95264.69
2023-05-06T10:26:48.060Z,95266.69
2023-05-06T10:29:19.013Z,95255.97
2023-05-06T10:31:52.321Z,95271.47
2023-05-06T10:34:23.255Z,95255.97
2023-05-06T10:36:57.937Z,95254.75
2023-05-06T10:39:27.383Z,95261.97
2023-05-06T10:41:56.061Z,95249.28
2023-05-06T10:44:57.751Z,95261.75
2023-05-06T10:47:25.882Z,95256.19
2023-05-06T10:50:23.248Z,95250.28
2023-05-06T10:52:57.689Z,95262.25
2023-05-06T10:55:34.683Z,95249.75
2023-05-06T10:58:06.527Z,95249.59
2023-05-06T11:00:35.754Z,95222.50
2023-05-06T11:03:08.380Z,95258.66
2023-05-06T11:05:49.155Z,95246.94
2023-05-06T11:08:23.104Z,95250.63
2023-05-06T11:10:52.413Z,95259.66
2023-05-06T11:13:26.323Z,95249.72
2023-05-06T11:15:57.105Z,95212.34
2023-05-06T11:18:46.159Z,95250.75
2023-05-06T11:21:41.286Z,95255.22
2023-05-06T11:24:13.946Z,95251.69
2023-05-06T11:26:45.452Z,95256.19
2023-05-06T11:29:16.966Z,95242.19
2023-05-06T11:31:45.991Z,95249.44
2023-05-06T11:34:47.115Z,95232.69
2023-05-06T11:37:25.962Z,95243.03
2023-05-06T11:39:55.673Z,95242.78
2023-05-06T11:42:30.219Z,95231.94
2023-05-06T11:45:02.776Z,95240.66
2023-05-06T11:47:31.652Z,95246.66
2023-05-06T11:50:00.012Z,95244.88
2023-05-06T11:52:32.003Z,95247.34
2023-05-06T11:55:00.450Z,95245.72
2023-05-06T11:57:28.447Z,95245.28
2023-05-06T11:59:56.565Z,95229.63
2023-05-06T12:02:27.050Z,95250.13
2023-05-06T12:04:55.577Z,95243.09
2023-05-06T12:07:24.662Z,95238.78
2023-05-06T12:09:54.696Z,95187.78
2023-05-06T12:12:25.463Z,95231.44
2023-05-06T12:14:55.314Z,95225.72
2023-05-06T12:17:26.458Z,95224.47
2023-05-06T12:19:54.378Z,95227.63
2023-05-06T12:22:24.918Z,95227.22
2023-05-06T12:24:54.482Z,95212.69
2023-05-06T12:27:33.168Z,95222.81
2023-05-06T12:30:04.694Z,95213.56
2023-05-06T12:32:34.672Z,95221.38
2023-05-06T12:35:07.761Z,95213.88
2023-05-06T12:37:35.856Z,95216.69
2023-05-06T12:40:08.340Z,95206.28
2023-05-06T12:42:37.318Z,95212.53
2023-05-06T12:45:17.844Z,95209.97
2023-05-06T12:47:58.802Z,95202.75
2023-05-06T12:50:34.532Z,95123.47
2023-05-06T12:53:03.315Z,95183.72
2023-05-06T12:55:34.034Z,95193.00
2023-05-06T12:58:03.548Z,95207.13
2023-05-06T13:00:32.146Z,95219.88
2023-05-06T13:03:00.715Z,95199.66
2023-05-06T13:05:29.337Z,95206.31
2023-05-06T13:07:57.623Z,95200.16
2023-05-06T13:10:26.460Z,95193.75
2023-05-06T13:12:56.390Z,95198.81
2023-05-06T13:15:25.393Z,95200.34
2023-05-06T13:17:54.073Z,95224.59
2023-05-06T13:20:22.325Z,95210.84
2023-05-06T13:22:54.881Z,95209.84
2023-05-06T13:25:23.744Z,95208.28
2023-05-06T13:27:52.333Z,95201.31
2023-05-06T13:30:22.115Z,95205.03
2023-05-06T13:32:50.246Z,95208.22
2023-05-06T13:35:18.783Z,95208.47
2023-05-06T13:37:48.314Z,95201.81
2023-05-06T13:40:16.668Z,95202.81
2023-05-06T13:42:45.258Z,95202.75
2023-05-06T13:45:13.931Z,95199.81
2023-05-06T13:47:44.557Z,95191.88
2023-05-06T13:50:14.492Z,95194.59
2023-05-06T13:52:42.857Z,95188.78
2023-05-06T13:55:11.476Z,95199.53
2023-05-06T13:57:39.815Z,95192.53
2023-05-06T14:00:11.108Z,95202.50
2023-05-06T14:02:39.110Z,95197.06
2023-05-06T14:05:09.973Z,95196.34
2023-05-06T14:07:41.473Z,95201.59
2023-05-06T14:10:12.101Z,95188.56
2023-05-06T14:12:41.945Z,95191.50
2023-05-06T14:15:11.349Z,95180.47
2023-05-06T14:17:40.056Z,95180.69
2023-05-06T14:20:12.588Z,95188.91
2023-05-06T14:22:42.776Z,95192.16
2023-05-06T14:25:13.132Z,95187.22
2023-05-06T14:27:41.433Z,95197.59
2023-05-06T14:30:10.650Z,95194.50
2023-05-06T14:32:38.900Z,95188.78
2023-05-06T14:35:11.347Z,95183.69
2023-05-06T14:37:40.385Z,95190.75
2023-05-06T14:40:10.178Z,95201.78
2023-05-06T14:42:38.523Z,95198.81
2023-05-06T14:45:08.376Z,95136.03
2023-05-06T14:47:36.908Z,95188.53
2023-05-06T14:50:05.998Z,95197.03
2023-05-06T14:52:36.100Z,95196.28
2023-05-06T14:55:04.293Z,95194.84
2023-05-06T14:57:32.759Z,95199.09
2023-05-06T15:00:03.642Z,95184.41
2023-05-06T15:02:32.581Z,95201.59
2023-05-06T15:05:03.948Z,95156.75
2023-05-06T15:07:33.101Z,95207.38
2023-05-06T15:10:04.704Z,95202.84
2023-05-06T15:12:33.812Z,95164.97
2023-05-06T15:15:02.661Z,95195.88
2023-05-06T15:17:31.167Z,95182.44
2023-05-06T15:19:59.437Z,95205.63
2023-05-06T15:22:28.059Z,95201.91
2023-05-06T15:24:57.843Z,95181.44
2023-05-06T15:27:27.912Z,95186.44
2023-05-06T15:29:55.980Z,95195.38
2023-05-06T15:32:24.906Z,95179.41
2023-05-06T15:34:55.820Z,95193.13
2023-05-06T15:37:24.310Z,95190.66
2023-05-06T15:39:52.502Z,95187.19
2023-05-06T15:42:20.782Z,95194.41
2023-05-06T15:44:51.576Z,95184.91
2023-05-06T15:47:19.927Z,95189.59
2023-05-06T15:50:10.884Z,95194.38
2023-05-06T15:52:36.238Z,95180.88
2023-05-06T15:55:05.178Z,95190.63
2023-05-06T15:57:33.594Z,95189.38
2023-05-06T16:00:04.439Z,95191.88
2023-05-06T16:02:32.822Z,95181.19
2023-05-06T16:05:01.041Z,95186.91
2023-05-06T16:07:34.560Z,95184.69
2023-05-06T16:10:03.863Z,95198.41
2023-05-06T16:12:32.746Z,95175.44
2023-05-06T16:15:03.462Z,95191.16
2023-05-06T16:17:37.701Z,95193.66
2023-05-06T16:20:09.283Z,95201.38
2023-05-06T16:22:41.816Z,95181.94
2023-05-06T16:25:10.710Z,95191.66
2023-05-06T16:27:38.950Z,95160.94
2023-05-06T16:30:10.964Z,95183.91
2023-05-06T16:32:40.630Z,95190.34
2023-05-06T16:35:10.245Z,95165.84
2023-05-06T16:37:38.472Z,95195.06
2023-05-06T16:40:08.413Z,95184.03
2023-05-06T16:42:36.883Z,95189.97
2023-05-06T16:45:06.323Z,95185.72
2023-05-06T16:47:36.082Z,95197.38
2023-05-06T16:50:05.339Z,95185.13
2023-05-06T16:52:33.492Z,95199.59
2023-05-06T16:55:02.018Z,95190.59
2023-05-06T16:57:30.271Z,95196.31
2023-05-06T16:59:58.509Z,95196.78
2023-05-06T17:02:27.141Z,95181.50
2023-05-06T17:04:57.944Z,95212.88
2023-05-06T17:07:28.041Z,95206.63
2023-05-06T17:09:56.210Z,95199.16
2023-05-06T17:12:25.097Z,95209.81
2023-05-06T17:14:54.831Z,95215.00
2023-05-06T17:17:24.941Z,95208.50
2023-05-06T17:19:53.569Z,95215.13
2023-05-06T17:22:24.886Z,95223.06
2023-05-06T17:24:54.348Z,95209.56
2023-05-06T17:27:22.948Z,95215.47
2023-05-06T17:29:52.721Z,95223.72
2023-05-06T17:32:21.063Z,95234.13
2023-05-06T17:34:49.325Z,95227.81
2023-05-06T17:37:18.434Z,95231.94
2023-05-06T17:39:48.534Z,95226.25
2023-05-06T17:42:19.356Z,95230.41
2023-05-06T17:44:47.646Z,95238.84
2023-05-06T17:47:17.529Z,95236.00
2023-05-06T17:49:45.863Z,95234.91
2023-05-06T17:52:14.019Z,95240.38
2023-05-06T17:54:42.091Z,95253.50
2023-05-06T17:57:12.159Z,95235.66
2023-05-06T17:59:40.332Z,95209.69
2023-05-06T18:02:10.295Z,95251.19
2023-05-06T18:04:38.767Z,95258.09
2023-05-06T18:07:07.288Z,95270.88
2023-05-06T18:09:36.916Z,95273.25
2023-05-06T18:12:05.449Z,95272.28
2023-05-06T18:14:35.203Z,95275.72
2023-05-06T18:17:03.608Z,95268.94
2023-05-06T18:19:31.903Z,95266.94
2023-05-06T18:21:59.806Z,95275.94
2023-05-06T18:24:27.931Z,95287.28
2023-05-06T18:26:56.568Z,95271.88
2023-05-06T18:29:24.727Z,95281.09
2023-05-06T18:31:54.247Z,95280.75
2023-05-06T18:34:22.462Z,95248.63
2023-05-06T18:36:52.934Z,95268.88
2023-05-06T18:39:21.987Z,95287.22
2023-05-06T18:41:50.544Z,95283.97
2023-05-06T18:44:18.789Z,95284.22
2023-05-06T18:46:46.709Z,95285.31
2023-05-06T18:49:16.529Z,95288.06
2023-05-06T18:51:47.956Z,95283.34
2023-05-06T18:54:16.314Z,95296.81
2023-05-06T18:56:45.072Z,95294.66
2023-05-06T18:59:13.584Z,95297.88
2023-05-06T19:01:41.944Z,95309.56
2023-05-06T19:04:12.449Z,95297.94
2023-05-06T19:06:42.273Z,95303.13
2023-05-06T19:09:11.652Z,95288.66
2023-05-06T19:11:40.198Z,95308.25
2023-05-06T19:14:08.594Z,95308.66
2023-05-06T19:16:36.647Z,95299.66
2023-05-06T19:19:07.150Z,95308.63
2023-05-06T19:21:35.869Z,95322.28
2023-05-06T19:24:06.679Z,95305.34
2023-05-06T19:26:35.030Z,95306.31
2023-05-06T19:29:03.517Z,95314.59
2023-05-06T19:31:31.749Z,95326.28
2023-05-06T19:34:01.681Z,95312.94
2023-05-06T19:36:31.768Z,95316.59
2023-05-06T19:39:00.283Z,95310.28
2023-05-06T19:41:30.090Z,95305.22
2023-05-06T19:43:58.877Z,95315.56
2023-05-06T19:46:26.911Z,95321.38
2023-05-06T19:48:58.315Z,95319.59
2023-05-06T19:51:26.902Z,95321.19
2023-05-06T19:53:55.879Z,95315.91
2023-05-06T19:56:24.639Z,95326.06
2023-05-06T19:58:54.133Z,95323.41
2023-05-06T20:01:25.027Z,95321.91
2023-05-06T20:03:53.473Z,95310.47
2023-05-06T20:06:21.632Z,95318.34
2023-05-06T20:08:50.095Z,95327.72
2023-05-06T20:11:18.180Z,95322.66
2023-05-06T20:13:46.270Z,95322.44
2023-05-06T20:16:16.185Z,95316.63
2023-05-06T20:18:44.767Z,95329.38
2023-05-06T20:21:16.926Z,95315.47
2023-05-06T20:23:46.586Z,95322.91
2023-05-06T20:26:14.754Z,95322.59
2023-05-06T20:28:43.275Z,95326.72
2023-05-06T20:31:11.501Z,95327.66
2023-05-06T20:33:42.727Z,95325.88
2023-05-06T20:36:11.500Z,95317.88
2023-05-06T20:38:39.774Z,95329.63
2023-05-06T20:41:08.239Z,95333.47
2023-05-06T20:43:36.572Z,95330.47
2023-05-06T20:46:05.600Z,95331.03
2023-05-06T20:48:34.002Z,95302.63
2023-05-06T20:51:03.546Z,95308.88
2023-05-06T20:53:31.974Z,95328.53
2023-05-06T20:56:00.109Z,95328.25
2023-05-06T20:58:29.784Z,95329.28
2023-05-06T21:01:00.073Z,95327.03
2023-05-06T21:03:28.223Z,95330.97
2023-05-06T21:05:56.304Z,95338.81
2023-05-06T21:08:25.919Z,95332.44
2023-05-06T21:10:54.923Z,95324.78
2023-05-06T21:13:23.402Z,95338.22
2023-05-06T21:15:51.790Z,95333.97
2023-05-06T21:18:20.053Z,95337.75
2023-05-06T21:20:49.070Z,95323.44
2023-05-06T21:23:19.057Z,95324.38
2023-05-06T21:25:49.089Z,95325.13
2023-05-06T21:28:17.573Z,95318.66
2023-05-06T21:30:45.853Z,95281.34
2023-05-06T21:33:14.458Z,95326.03
2023-05-06T21:35:43.801Z,95311.75
2023-05-06T21:38:12.112Z,95319.44
2023-05-06T21:40:41.371Z,95319.41
2023-05-06T21:43:11.343Z,95328.19
2023-05-06T21:45:39.752Z,95330.78
2023-05-06T21:48:09.717Z,95318.81
2023-05-06T21:50:38.589Z,95316.41
2023-05-06T21:53:06.704Z,95320.75
2023-05-06T21:55:35.314Z,95320.00
2023-05-06T21:58:06.765Z,95328.50
2023-05-06T22:00:37.031Z,95320.50
2023-05-06T22:03:05.595Z,95315.22
2023-05-06T22:05:33.727Z,95316.19
2023-05-06T22:08:01.666Z,95320.59
2023-05-06T22:10:31.354Z,95326.56
2023-05-06T22:12:59.668Z,95323.06
2023-05-06T22:15:27.868Z,95321.91
2023-05-06T22:17:59.313Z,95322.81
2023-05-06T22:20:28.699Z,95321.94
2023-05-06T22:22:59.426Z,95262.84
2023-05-06T22:25:27.777Z,95307.16
2023-05-06T22:27:55.918Z,95319.38
2023-05-06T22:30:24.318Z,95324.94
2023-05-06T22:32:52.261Z,95323.72
2023-05-06T22:35:22.149Z,95312.88
2023-05-06T22:37:50.320Z,95314.69
2023-05-06T22:40:18.443Z,95313.34
2023-05-06T22:42:48.438Z,95323.16
2023-05-06T22:45:16.791Z,95314.69
2023-05-06T22:47:45.115Z,95319.22
2023-05-06T22:50:13.760Z,95314.56
2023-05-06T22:52:43.598Z,95319.22
2023-05-06T22:55:16.599Z,95314.72
2023-05-06T22:57:44.966Z,95314.72
2023-05-06T23:00:16.426Z,95318.03
2023-05-06T23:02:45.027Z,95300.22
2023-05-06T23:05:13.999Z,95302.03
2023-05-06T23:07:43.786Z,95294.97
2023-05-06T23:10:12.606Z,95294.66
2023-05-06T23:12:41.280Z,95296.94
2023-05-06T23:15:10.939Z,95300.22
2023-05-06T23:17:39.310Z,95302.38
2023-05-06T23:20:09.042Z,95306.84
2023-05-06T23:22:37.129Z,95305.78
2023-05-06T23:25:09.356Z,95311.81
2023-05-06T23:27:40.339Z,95302.28
2023-05-06T23:30:10.148Z,95303.03
2023-05-06T23:32:39.444Z,95298.53
2023-05-06T23:35:09.423Z,95310.78
2023-05-06T23:37:38.283Z,95295.75
2023-05-06T23:40:11.260Z,95312.00
2023-05-06T23:42:39.785Z,95317.97
2023-05-06T23:45:10.852Z,95306.97
2023-05-06T23:47:42.143Z,95314.53
2023-05-06T23:50:11.024Z,95309.50
2023-05-06T23:52:39.683Z,95297.34
2023-05-06T23:55:10.975Z,95312.72
2023-05-06T23:57:39.496Z,95317.78
